Time;durP1;ratioP1;P1;durP2;ratioP2;P2;SDS_P1;SDS_P2;PMS_P1;PMS_P2;Temp;Humidity;BMP_temperature;BMP_pressure;BME280_temperature;BME280_humidity;BME280_pressure;Samples;Min_cycle;Max_cycle;Signal;HPM_P1;HPM_P2
2022/04/04 00:00:37;;;;;;;10.25;6.6;;;;;;;-2.21;100;95495.39;;;;
2022/04/04 00:01:38;;;;;;;10.25;6.6;;;;;;;-2.21;100;95495.39;;;;
2022/04/04 00:02:38;;;;;;;10.25;6.6;;;;;;;-2.21;100;95495.39;;;;
2022/04/04 00:03:39;;;;;;;10.25;6.6;;;;;;;-2.21;100;95495.39;;;;
2022/04/04 00:04:39;;;;;;;10.25;6.6;;;;;;;-2.21;100;95495.39;;;;
2022/04/04 00:05:40;;;;;;;10.25;6.6;;;;;;;-2.21;100;95495.39;;;;
2022/04/04 00:06:40;;;;;;;9.650001;6.65;;;;;;;-2.45;100;95489.5;;;;
2022/04/04 00:07:41;;;;;;;9.650001;6.65;;;;;;;-2.45;100;95489.5;;;;
2022/04/04 00:08:41;;;;;;;9.650001;6.65;;;;;;;-2.45;100;95489.5;;;;
2022/04/04 00:09:42;;;;;;;9.650001;6.65;;;;;;;-2.45;100;95489.5;;;;
2022/04/04 00:10:43;;;;;;;9.650001;6.65;;;;;;;-2.45;100;95489.5;;;;
2022/04/04 00:11:43;;;;;;;9.650001;6.65;;;;;;;-2.45;100;95489.5;;;;
2022/04/04 00:12:44;;;;;;;9.650001;6.65;;;;;;;-2.45;100;95489.5;;;;
2022/04/04 00:13:44;;;;;;;9.650001;6.65;;;;;;;-2.45;100;95489.5;;;;
2022/04/04 00:14:45;;;;;;;9.650001;6.65;;;;;;;-2.45;100;95489.5;;;;
2022/04/04 00:15:45;;;;;;;9.650001;6.65;;;;;;;-2.45;100;95489.5;;;;
2022/04/04 00:16:46;;;;;;;10.1;6.85;;;;;;;-2.62;100;95486.36;;;;
2022/04/04 00:17:46;;;;;;;10.1;6.85;;;;;;;-2.62;100;95486.36;;;;
2022/04/04 00:18:47;;;;;;;10.1;6.85;;;;;;;-2.62;100;95486.36;;;;
2022/04/04 00:19:47;;;;;;;10.1;6.85;;;;;;;-2.62;100;95486.36;;;;
2022/04/04 00:20:49;;;;;;;10.1;6.85;;;;;;;-2.62;100;95486.36;;;;
2022/04/04 00:21:50;;;;;;;10.1;6.85;;;;;;;-2.62;100;95486.36;;;;
2022/04/04 00:22:50;;;;;;;10.1;6.85;;;;;;;-2.62;100;95486.36;;;;
2022/04/04 00:23:51;;;;;;;10.1;6.85;;;;;;;-2.62;100;95486.36;;;;
2022/04/04 00:24:51;;;;;;;10.1;6.85;;;;;;;-2.62;100;95486.36;;;;
2022/04/04 00:25:52;;;;;;;10.1;6.85;;;;;;;-2.62;100;95486.36;;;;
2022/04/04 00:26:52;;;;;;;10.1;6.85;;;;;;;-2.62;100;95486.36;;;;
2022/04/04 00:27:53;;;;;;;10.05;6.849999;;;;;;;-2.85;100;95469.3;;;;
2022/04/04 00:28:54;;;;;;;10.05;6.849999;;;;;;;-2.85;100;95469.3;;;;
2022/04/04 00:29:54;;;;;;;10.05;6.849999;;;;;;;-2.85;100;95469.3;;;;
2022/04/04 00:30:54;;;;;;;10.05;6.849999;;;;;;;-2.85;100;95469.3;;;;
2022/04/04 00:31:55;;;;;;;10.05;6.849999;;;;;;;-2.85;100;95469.3;;;;
2022/04/04 00:32:56;;;;;;;10.05;6.849999;;;;;;;-2.85;100;95469.3;;;;
2022/04/04 00:33:56;;;;;;;10.05;6.849999;;;;;;;-2.85;100;95469.3;;;;
2022/04/04 00:35:00;;;;;;;10.05;6.849999;;;;;;;-2.85;100;95469.3;;;;
2022/04/04 00:36:02;;;;;;;10.05;6.849999;;;;;;;-2.85;100;95469.3;;;;
2022/04/04 00:37:03;;;;;;;10.05;6.849999;;;;;;;-2.85;100;95469.3;;;;
2022/04/04 00:38:04;;;;;;;9.1;6.65;;;;;;;-3.02;100;95453.34;;;;
2022/04/04 00:39:06;;;;;;;9.1;6.65;;;;;;;-3.02;100;95453.34;;;;
2022/04/04 00:40:06;;;;;;;9.1;6.65;;;;;;;-3.02;100;95453.34;;;;
2022/04/04 00:41:08;;;;;;;9.1;6.65;;;;;;;-3.02;100;95453.34;;;;
2022/04/04 00:42:10;;;;;;;9.1;6.65;;;;;;;-3.02;100;95453.34;;;;
2022/04/04 00:43:14;;;;;;;9.1;6.65;;;;;;;-3.02;100;95453.34;;;;
2022/04/04 00:44:15;;;;;;;9.1;6.65;;;;;;;-3.02;100;95453.34;;;;
2022/04/04 00:45:15;;;;;;;9.1;6.65;;;;;;;-3.02;100;95453.34;;;;
2022/04/04 00:46:16;;;;;;;9.1;6.65;;;;;;;-3.02;100;95453.34;;;;
2022/04/04 00:47:16;;;;;;;9.1;6.65;;;;;;;-3.02;100;95453.34;;;;
2022/04/04 00:48:17;;;;;;;9.1;6.65;;;;;;;-3.02;100;95453.34;;;;
2022/04/04 00:49:18;;;;;;;9.1;6.65;;;;;;;-3.02;100;95453.34;;;;
2022/04/04 00:50:18;;;;;;;9.1;6.65;;;;;;;-3.02;100;95453.34;;;;
2022/04/04 00:51:19;;;;;;;9.1;6.65;;;;;;;-3.02;100;95453.34;;;;
2022/04/04 00:52:20;;;;;;;9.1;6.65;;;;;;;-3.02;100;95453.34;;;;
2022/04/04 00:53:20;;;;;;;9.1;6.65;;;;;;;-3.02;100;95453.34;;;;
2022/04/04 00:54:21;;;;;;;9.1;6.65;;;;;;;-3.02;100;95453.34;;;;
2022/04/04 00:55:22;;;;;;;9.1;6.65;;;;;;;-3.02;100;95453.34;;;;
2022/04/04 00:56:24;;;;;;;9.1;6.65;;;;;;;-3.02;100;95453.34;;;;
2022/04/04 00:57:27;;;;;;;9.1;6.65;;;;;;;-3.02;100;95453.34;;;;
2022/04/04 00:58:30;;;;;;;9.1;6.65;;;;;;;-3.02;100;95453.34;;;;
2022/04/04 00:59:31;;;;;;;9.799998;7.349999;;;;;;;-3.3;100;95443.4;;;;
2022/04/04 01:00:31;;;;;;;9.799998;7.349999;;;;;;;-3.3;100;95443.4;;;;
2022/04/04 01:01:32;;;;;;;9.799998;7.349999;;;;;;;-3.3;100;95443.4;;;;
2022/04/04 01:02:32;;;;;;;9.799998;7.349999;;;;;;;-3.3;100;95443.4;;;;
2022/04/04 01:03:33;;;;;;;9.799998;7.349999;;;;;;;-3.3;100;95443.4;;;;
2022/04/04 01:04:33;;;;;;;9.799998;7.349999;;;;;;;-3.3;100;95443.4;;;;
2022/04/04 01:05:34;;;;;;;9.799998;7.349999;;;;;;;-3.3;100;95443.4;;;;
2022/04/04 01:06:34;;;;;;;9.799998;7.349999;;;;;;;-3.3;100;95443.4;;;;
2022/04/04 01:07:35;;;;;;;9.799998;7.349999;;;;;;;-3.3;100;95443.4;;;;
2022/04/04 01:08:42;;;;;;;9.799998;7.349999;;;;;;;-3.3;100;95443.4;;;;
2022/04/04 01:09:43;;;;;;;9.799998;7.349999;;;;;;;-3.3;100;95443.4;;;;
2022/04/04 01:10:43;;;;;;;11.6;7.749999;;;;;;;-3.52;100;95428.8;;;;
2022/04/04 01:11:44;;;;;;;11.6;7.749999;;;;;;;-3.52;100;95428.8;;;;
2022/04/04 01:13:03;;;;;;;11.6;7.749999;;;;;;;-3.52;100;95428.8;;;;
2022/04/04 01:14:03;;;;;;;11.6;7.749999;;;;;;;-3.52;100;95428.8;;;;
2022/04/04 01:15:04;;;;;;;11.6;7.749999;;;;;;;-3.52;100;95428.8;;;;
2022/04/04 01:16:05;;;;;;;11.6;7.749999;;;;;;;-3.52;100;95428.8;;;;
2022/04/04 01:17:05;;;;;;;11.6;7.749999;;;;;;;-3.52;100;95428.8;;;;
2022/04/04 01:18:07;;;;;;;11.6;7.749999;;;;;;;-3.52;100;95428.8;;;;
2022/04/04 01:19:09;;;;;;;11.6;7.749999;;;;;;;-3.52;100;95428.8;;;;
2022/04/04 01:20:09;;;;;;;11.6;7.749999;;;;;;;-3.52;100;95428.8;;;;
2022/04/04 01:21:10;;;;;;;10.45;7.400001;;;;;;;-3.68;100;95426.39;;;;
2022/04/04 01:22:11;;;;;;;10.45;7.400001;;;;;;;-3.68;100;95426.39;;;;
2022/04/04 01:23:14;;;;;;;10.45;7.400001;;;;;;;-3.68;100;95426.39;;;;
2022/04/04 01:24:21;;;;;;;10.45;7.400001;;;;;;;-3.68;100;95426.39;;;;
2022/04/04 01:25:21;;;;;;;10.45;7.400001;;;;;;;-3.68;100;95426.39;;;;
2022/04/04 01:26:24;;;;;;;10.45;7.400001;;;;;;;-3.68;100;95426.39;;;;
2022/04/04 01:27:24;;;;;;;10.45;7.400001;;;;;;;-3.68;100;95426.39;;;;
2022/04/04 01:28:25;;;;;;;10.45;7.400001;;;;;;;-3.68;100;95426.39;;;;
2022/04/04 01:29:26;;;;;;;10.45;7.400001;;;;;;;-3.68;100;95426.39;;;;
2022/04/04 01:30:26;;;;;;;10.45;7.400001;;;;;;;-3.68;100;95426.39;;;;
2022/04/04 01:31:27;;;;;;;11.05;7.65;;;;;;;-3.82;100;95418.13;;;;
2022/04/04 01:32:28;;;;;;;11.05;7.65;;;;;;;-3.82;100;95418.13;;;;
2022/04/04 01:33:28;;;;;;;11.05;7.65;;;;;;;-3.82;100;95418.13;;;;
2022/04/04 01:34:29;;;;;;;11.05;7.65;;;;;;;-3.82;100;95418.13;;;;
2022/04/04 01:35:30;;;;;;;11.05;7.65;;;;;;;-3.82;100;95418.13;;;;
2022/04/04 01:36:31;;;;;;;11.05;7.65;;;;;;;-3.82;100;95418.13;;;;
2022/04/04 01:37:31;;;;;;;11.05;7.65;;;;;;;-3.82;100;95418.13;;;;
2022/04/04 01:38:32;;;;;;;11.05;7.65;;;;;;;-3.82;100;95418.13;;;;
2022/04/04 01:39:32;;;;;;;11.05;7.65;;;;;;;-3.82;100;95418.13;;;;
2022/04/04 01:40:33;;;;;;;11.05;7.65;;;;;;;-3.82;100;95418.13;;;;
2022/04/04 01:41:34;;;;;;;11.05;7.65;;;;;;;-3.82;100;95418.13;;;;
2022/04/04 01:42:34;;;;;;;11.05;7.65;;;;;;;-3.82;100;95418.13;;;;
2022/04/04 01:43:35;;;;;;;11.05;7.65;;;;;;;-3.82;100;95418.13;;;;
2022/04/04 01:44:36;;;;;;;11.05;7.65;;;;;;;-3.82;100;95418.13;;;;
2022/04/04 01:46:42;;;;;;;11.05;7.65;;;;;;;-3.82;100;95418.13;;;;
2022/04/04 01:47:42;;;;;;;11.05;7.65;;;;;;;-3.82;100;95418.13;;;;
2022/04/04 01:48:44;;;;;;;11.05;7.65;;;;;;;-3.82;100;95418.13;;;;
2022/04/04 01:49:44;;;;;;;11.05;7.65;;;;;;;-3.82;100;95418.13;;;;
2022/04/04 01:50:45;;;;;;;11.05;7.65;;;;;;;-3.82;100;95418.13;;;;
2022/04/04 01:51:45;;;;;;;11.05;7.65;;;;;;;-3.82;100;95418.13;;;;
2022/04/04 01:53:25;;;;;;;11.05;7.65;;;;;;;-3.82;100;95418.13;;;;
2022/04/04 01:54:26;;;;;;;11.05;7.65;;;;;;;-3.82;100;95418.13;;;;
2022/04/04 01:55:26;;;;;;;11.05;7.65;;;;;;;-3.82;100;95418.13;;;;
2022/04/04 01:56:27;;;;;;;11.05;7.65;;;;;;;-3.82;100;95418.13;;;;
2022/04/04 01:57:28;;;;;;;11.05;7.65;;;;;;;-3.82;100;95418.13;;;;
2022/04/04 01:58:28;;;;;;;11.05;7.65;;;;;;;-3.82;100;95418.13;;;;
2022/04/04 01:59:29;;;;;;;11.05;7.65;;;;;;;-3.82;100;95418.13;;;;
2022/04/04 02:00:30;;;;;;;11.05;7.65;;;;;;;-3.82;100;95418.13;;;;
2022/04/04 02:01:34;;;;;;;11.05;7.65;;;;;;;-3.82;100;95418.13;;;;
2022/04/04 02:02:34;;;;;;;11.05;7.65;;;;;;;-3.82;100;95418.13;;;;
2022/04/04 02:03:36;;;;;;;11.05;7.65;;;;;;;-3.82;100;95418.13;;;;
2022/04/04 02:04:37;;;;;;;10.5;7.05;;;;;;;-4.21;100;95403.86;;;;
2022/04/04 02:05:37;;;;;;;10.5;7.05;;;;;;;-4.21;100;95403.86;;;;
2022/04/04 02:06:39;;;;;;;10.5;7.05;;;;;;;-4.21;100;95403.86;;;;
2022/04/04 02:07:40;;;;;;;10.5;7.05;;;;;;;-4.21;100;95403.86;;;;
2022/04/04 02:08:42;;;;;;;10.5;7.05;;;;;;;-4.21;100;95403.86;;;;
2022/04/04 02:09:42;;;;;;;10.5;7.05;;;;;;;-4.21;100;95403.86;;;;
2022/04/04 02:10:44;;;;;;;10.5;7.05;;;;;;;-4.21;100;95403.86;;;;
2022/04/04 02:11:45;;;;;;;10.5;7.05;;;;;;;-4.21;100;95403.86;;;;
2022/04/04 02:12:46;;;;;;;10.5;7.05;;;;;;;-4.21;100;95403.86;;;;
2022/04/04 02:13:46;;;;;;;10.5;7.05;;;;;;;-4.21;100;95403.86;;;;
2022/04/04 02:14:47;;;;;;;11;7.799999;;;;;;;-4.37;100;95394.41;;;;
2022/04/04 02:15:47;;;;;;;11;7.799999;;;;;;;-4.37;100;95394.41;;;;
2022/04/04 02:16:48;;;;;;;11;7.799999;;;;;;;-4.37;100;95394.41;;;;
2022/04/04 02:17:50;;;;;;;11;7.799999;;;;;;;-4.37;100;95394.41;;;;
2022/04/04 02:18:51;;;;;;;11;7.799999;;;;;;;-4.37;100;95394.41;;;;
2022/04/04 02:19:51;;;;;;;11;7.799999;;;;;;;-4.37;100;95394.41;;;;
2022/04/04 02:20:52;;;;;;;11;7.799999;;;;;;;-4.37;100;95394.41;;;;
2022/04/04 02:21:52;;;;;;;11;7.799999;;;;;;;-4.37;100;95394.41;;;;
2022/04/04 02:22:53;;;;;;;11;7.799999;;;;;;;-4.37;100;95394.41;;;;
2022/04/04 02:23:53;;;;;;;11;7.799999;;;;;;;-4.37;100;95394.41;;;;
2022/04/04 02:24:54;;;;;;;11;7.799999;;;;;;;-4.37;100;95394.41;;;;
2022/04/04 02:25:55;;;;;;;9.549999;7.2;;;;;;;-4.44;100;95386.74;;;;
2022/04/04 02:26:56;;;;;;;9.549999;7.2;;;;;;;-4.44;100;95386.74;;;;
2022/04/04 02:27:57;;;;;;;9.549999;7.2;;;;;;;-4.44;100;95386.74;;;;
2022/04/04 02:28:57;;;;;;;9.549999;7.2;;;;;;;-4.44;100;95386.74;;;;
2022/04/04 02:29:58;;;;;;;9.549999;7.2;;;;;;;-4.44;100;95386.74;;;;
2022/04/04 02:30:58;;;;;;;9.549999;7.2;;;;;;;-4.44;100;95386.74;;;;
2022/04/04 02:32:00;;;;;;;9.549999;7.2;;;;;;;-4.44;100;95386.74;;;;
2022/04/04 02:33:01;;;;;;;9.549999;7.2;;;;;;;-4.44;100;95386.74;;;;
2022/04/04 02:34:01;;;;;;;9.549999;7.2;;;;;;;-4.44;100;95386.74;;;;
2022/04/04 02:35:02;;;;;;;9.549999;7.2;;;;;;;-4.44;100;95386.74;;;;
2022/04/04 02:36:03;;;;;;;12.2;8.35;;;;;;;-4.53;100;95386.66;;;;
2022/04/04 02:37:04;;;;;;;12.2;8.35;;;;;;;-4.53;100;95386.66;;;;
2022/04/04 02:38:05;;;;;;;12.2;8.35;;;;;;;-4.53;100;95386.66;;;;
2022/04/04 02:39:06;;;;;;;12.2;8.35;;;;;;;-4.53;100;95386.66;;;;
2022/04/04 02:40:07;;;;;;;12.2;8.35;;;;;;;-4.53;100;95386.66;;;;
2022/04/04 02:41:09;;;;;;;12.2;8.35;;;;;;;-4.53;100;95386.66;;;;
2022/04/04 02:42:10;;;;;;;12.2;8.35;;;;;;;-4.53;100;95386.66;;;;
2022/04/04 02:43:10;;;;;;;12.2;8.35;;;;;;;-4.53;100;95386.66;;;;
2022/04/04 02:44:11;;;;;;;12.2;8.35;;;;;;;-4.53;100;95386.66;;;;
2022/04/04 02:45:12;;;;;;;12.2;8.35;;;;;;;-4.53;100;95386.66;;;;
2022/04/04 02:46:14;;;;;;;12.2;8.35;;;;;;;-4.53;100;95386.66;;;;
2022/04/04 02:47:15;;;;;;;11.3;7.7;;;;;;;-4.62;100;95386.61;;;;
2022/04/04 02:48:15;;;;;;;11.3;7.7;;;;;;;-4.62;100;95386.61;;;;
2022/04/04 02:49:16;;;;;;;11.3;7.7;;;;;;;-4.62;100;95386.61;;;;
2022/04/04 02:50:16;;;;;;;11.3;7.7;;;;;;;-4.62;100;95386.61;;;;
2022/04/04 02:51:17;;;;;;;11.3;7.7;;;;;;;-4.62;100;95386.61;;;;
2022/04/04 02:52:18;;;;;;;11.3;7.7;;;;;;;-4.62;100;95386.61;;;;
2022/04/04 02:53:18;;;;;;;11.3;7.7;;;;;;;-4.62;100;95386.61;;;;
2022/04/04 02:54:19;;;;;;;11.3;7.7;;;;;;;-4.62;100;95386.61;;;;
2022/04/04 03:00:30;;;;;;;10.75;7.349999;;;;;;;-4.69;100;95377.62;;;;
2022/04/04 03:01:31;;;;;;;10.75;7.349999;;;;;;;-4.69;100;95377.62;;;;
2022/04/04 03:02:32;;;;;;;10.75;7.349999;;;;;;;-4.69;100;95377.62;;;;
2022/04/04 03:03:32;;;;;;;10.75;7.349999;;;;;;;-4.69;100;95377.62;;;;
2022/04/04 03:04:33;;;;;;;10.75;7.349999;;;;;;;-4.69;100;95377.62;;;;
2022/04/04 03:05:34;;;;;;;10.75;7.349999;;;;;;;-4.69;100;95377.62;;;;
2022/04/04 03:06:36;;;;;;;10.75;7.349999;;;;;;;-4.69;100;95377.62;;;;
2022/04/04 03:07:36;;;;;;;10.75;7.349999;;;;;;;-4.69;100;95377.62;;;;
2022/04/04 03:08:37;;;;;;;14.15;7.95;;;;;;;-4.66;100;95371.67;;;;
2022/04/04 03:09:37;;;;;;;14.15;7.95;;;;;;;-4.66;100;95371.67;;;;
2022/04/04 03:10:38;;;;;;;14.15;7.95;;;;;;;-4.66;100;95371.67;;;;
2022/04/04 03:11:39;;;;;;;14.15;7.95;;;;;;;-4.66;100;95371.67;;;;
2022/04/04 03:12:39;;;;;;;14.15;7.95;;;;;;;-4.66;100;95371.67;;;;
2022/04/04 03:13:41;;;;;;;14.15;7.95;;;;;;;-4.66;100;95371.67;;;;
2022/04/04 03:14:42;;;;;;;14.15;7.95;;;;;;;-4.66;100;95371.67;;;;
2022/04/04 03:15:42;;;;;;;14.15;7.95;;;;;;;-4.66;100;95371.67;;;;
2022/04/04 03:16:43;;;;;;;14.15;7.95;;;;;;;-4.66;100;95371.67;;;;
2022/04/04 03:17:44;;;;;;;14.15;7.95;;;;;;;-4.66;100;95371.67;;;;
2022/04/04 03:18:47;;;;;;;14.15;7.95;;;;;;;-4.66;100;95371.67;;;;
2022/04/04 03:19:47;;;;;;;11.4;7.799999;;;;;;;-4.72;100;95362.53;;;;
2022/04/04 03:20:48;;;;;;;11.4;7.799999;;;;;;;-4.72;100;95362.53;;;;
2022/04/04 03:21:48;;;;;;;11.4;7.799999;;;;;;;-4.72;100;95362.53;;;;
2022/04/04 03:22:49;;;;;;;11.4;7.799999;;;;;;;-4.72;100;95362.53;;;;
2022/04/04 03:23:52;;;;;;;11.4;7.799999;;;;;;;-4.72;100;95362.53;;;;
2022/04/04 03:24:52;;;;;;;11.4;7.799999;;;;;;;-4.72;100;95362.53;;;;
2022/04/04 03:25:54;;;;;;;11.4;7.799999;;;;;;;-4.72;100;95362.53;;;;
2022/04/04 03:26:55;;;;;;;11.4;7.799999;;;;;;;-4.72;100;95362.53;;;;
2022/04/04 03:27:55;;;;;;;11.4;7.799999;;;;;;;-4.72;100;95362.53;;;;
2022/04/04 03:28:56;;;;;;;11.4;7.799999;;;;;;;-4.72;100;95362.53;;;;
2022/04/04 03:29:57;;;;;;;9.500002;7.1;;;;;;;-4.88;100;95364.5;;;;
2022/04/04 03:30:58;;;;;;;9.500002;7.1;;;;;;;-4.88;100;95364.5;;;;
2022/04/04 03:31:59;;;;;;;9.500002;7.1;;;;;;;-4.88;100;95364.5;;;;
2022/04/04 03:32:59;;;;;;;9.500002;7.1;;;;;;;-4.88;100;95364.5;;;;
2022/04/04 03:34:00;;;;;;;9.500002;7.1;;;;;;;-4.88;100;95364.5;;;;
2022/04/04 03:35:01;;;;;;;9.500002;7.1;;;;;;;-4.88;100;95364.5;;;;
2022/04/04 03:36:02;;;;;;;9.500002;7.1;;;;;;;-4.88;100;95364.5;;;;
2022/04/04 03:37:05;;;;;;;9.500002;7.1;;;;;;;-4.88;100;95364.5;;;;
2022/04/04 03:38:07;;;;;;;9.500002;7.1;;;;;;;-4.88;100;95364.5;;;;
2022/04/04 03:39:08;;;;;;;9.500002;7.1;;;;;;;-4.88;100;95364.5;;;;
2022/04/04 03:40:12;;;;;;;9.500002;7.1;;;;;;;-4.88;100;95364.5;;;;
2022/04/04 03:41:13;;;;;;;10.35;7.15;;;;;;;-5.05;100;95360.77;;;;
2022/04/04 03:42:14;;;;;;;10.35;7.15;;;;;;;-5.05;100;95360.77;;;;
2022/04/04 03:43:14;;;;;;;10.35;7.15;;;;;;;-5.05;100;95360.77;;;;
2022/04/04 03:44:15;;;;;;;10.35;7.15;;;;;;;-5.05;100;95360.77;;;;
2022/04/04 03:45:16;;;;;;;10.35;7.15;;;;;;;-5.05;100;95360.77;;;;
2022/04/04 03:46:17;;;;;;;10.35;7.15;;;;;;;-5.05;100;95360.77;;;;
2022/04/04 03:47:18;;;;;;;10.35;7.15;;;;;;;-5.05;100;95360.77;;;;
2022/04/04 03:48:18;;;;;;;10.35;7.15;;;;;;;-5.05;100;95360.77;;;;
2022/04/04 03:49:19;;;;;;;10.35;7.15;;;;;;;-5.05;100;95360.77;;;;
2022/04/04 03:50:20;;;;;;;10.35;7.15;;;;;;;-5.05;100;95360.77;;;;
2022/04/04 03:51:21;;;;;;;10.35;7.15;;;;;;;-5.05;100;95360.77;;;;
2022/04/04 03:52:22;;;;;;;10.35;7.15;;;;;;;-5.05;100;95360.77;;;;
2022/04/04 03:53:23;;;;;;;10.35;7.15;;;;;;;-5.05;100;95360.77;;;;
2022/04/04 03:54:24;;;;;;;10.35;7.15;;;;;;;-5.05;100;95360.77;;;;
2022/04/04 03:55:25;;;;;;;10.35;7.15;;;;;;;-5.05;100;95360.77;;;;
2022/04/04 03:56:28;;;;;;;10.35;7.15;;;;;;;-5.05;100;95360.77;;;;
2022/04/04 03:57:28;;;;;;;10.35;7.15;;;;;;;-5.05;100;95360.77;;;;
2022/04/04 03:58:29;;;;;;;10.35;7.15;;;;;;;-5.05;100;95360.77;;;;
2022/04/04 03:59:30;;;;;;;10.35;7.15;;;;;;;-5.05;100;95360.77;;;;
2022/04/04 04:00:30;;;;;;;10.35;7.15;;;;;;;-5.05;100;95360.77;;;;
2022/04/04 04:01:31;;;;;;;10.35;7.15;;;;;;;-5.05;100;95360.77;;;;
2022/04/04 04:02:32;;;;;;;11.2;7.55;;;;;;;-5.35;100;95359.62;;;;
2022/04/04 04:03:35;;;;;;;11.2;7.55;;;;;;;-5.35;100;95359.62;;;;
2022/04/04 04:04:36;;;;;;;11.2;7.55;;;;;;;-5.35;100;95359.62;;;;
2022/04/04 04:05:36;;;;;;;11.2;7.55;;;;;;;-5.35;100;95359.62;;;;
2022/04/04 04:06:37;;;;;;;11.2;7.55;;;;;;;-5.35;100;95359.62;;;;
2022/04/04 04:07:37;;;;;;;11.2;7.55;;;;;;;-5.35;100;95359.62;;;;
2022/04/04 04:08:39;;;;;;;11.2;7.55;;;;;;;-5.35;100;95359.62;;;;
2022/04/04 04:09:42;;;;;;;11.2;7.55;;;;;;;-5.35;100;95359.62;;;;
2022/04/04 04:10:43;;;;;;;11.2;7.55;;;;;;;-5.35;100;95359.62;;;;
2022/04/04 04:11:44;;;;;;;11.2;7.55;;;;;;;-5.35;100;95359.62;;;;
2022/04/04 04:12:45;;;;;;;10.75;7.85;;;;;;;-5.47;100;95356.78;;;;
2022/04/04 04:13:47;;;;;;;10.75;7.85;;;;;;;-5.47;100;95356.78;;;;
2022/04/04 04:14:47;;;;;;;10.75;7.85;;;;;;;-5.47;100;95356.78;;;;
2022/04/04 04:15:49;;;;;;;10.75;7.85;;;;;;;-5.47;100;95356.78;;;;
2022/04/04 04:16:49;;;;;;;10.75;7.85;;;;;;;-5.47;100;95356.78;;;;
2022/04/04 04:17:52;;;;;;;10.75;7.85;;;;;;;-5.47;100;95356.78;;;;
2022/04/04 04:18:52;;;;;;;10.75;7.85;;;;;;;-5.47;100;95356.78;;;;
2022/04/04 04:20:29;;;;;;;10.75;7.85;;;;;;;-5.47;100;95356.78;;;;
2022/04/04 04:21:29;;;;;;;10.75;7.85;;;;;;;-5.47;100;95356.78;;;;
2022/04/04 04:22:30;;;;;;;10.75;7.85;;;;;;;-5.47;100;95356.78;;;;
2022/04/04 04:23:31;;;;;;;12.8;8.35;;;;;;;-5.53;100;95353.8;;;;
2022/04/04 04:24:31;;;;;;;12.8;8.35;;;;;;;-5.53;100;95353.8;;;;
2022/04/04 04:25:32;;;;;;;12.8;8.35;;;;;;;-5.53;100;95353.8;;;;
2022/04/04 04:26:34;;;;;;;12.8;8.35;;;;;;;-5.53;100;95353.8;;;;
2022/04/04 04:27:34;;;;;;;12.8;8.35;;;;;;;-5.53;100;95353.8;;;;
2022/04/04 04:28:35;;;;;;;12.8;8.35;;;;;;;-5.53;100;95353.8;;;;
2022/04/04 04:29:36;;;;;;;12.8;8.35;;;;;;;-5.53;100;95353.8;;;;
2022/04/04 04:30:36;;;;;;;12.8;8.35;;;;;;;-5.53;100;95353.8;;;;
2022/04/04 04:31:37;;;;;;;12.8;8.35;;;;;;;-5.53;100;95353.8;;;;
2022/04/04 04:32:38;;;;;;;12.8;8.35;;;;;;;-5.53;100;95353.8;;;;
2022/04/04 04:33:38;;;;;;;12.8;8.35;;;;;;;-5.53;100;95353.8;;;;
2022/04/04 04:34:39;;;;;;;13.05;10;;;;;;;-5.64;100;95354.39;;;;
2022/04/04 04:35:40;;;;;;;13.05;10;;;;;;;-5.64;100;95354.39;;;;
2022/04/04 04:36:41;;;;;;;13.05;10;;;;;;;-5.64;100;95354.39;;;;
2022/04/04 04:37:42;;;;;;;13.05;10;;;;;;;-5.64;100;95354.39;;;;
2022/04/04 04:38:43;;;;;;;13.05;10;;;;;;;-5.64;100;95354.39;;;;
2022/04/04 04:39:44;;;;;;;13.05;10;;;;;;;-5.64;100;95354.39;;;;
2022/04/04 04:40:44;;;;;;;13.05;10;;;;;;;-5.64;100;95354.39;;;;
2022/04/04 04:41:45;;;;;;;13.05;10;;;;;;;-5.64;100;95354.39;;;;
2022/04/04 04:42:46;;;;;;;13.05;10;;;;;;;-5.64;100;95354.39;;;;
2022/04/04 04:43:49;;;;;;;13.05;10;;;;;;;-5.64;100;95354.39;;;;
2022/04/04 04:44:49;;;;;;;12;10.05;;;;;;;-5.75;100;95356.25;;;;
2022/04/04 04:45:50;;;;;;;12;10.05;;;;;;;-5.75;100;95356.25;;;;
2022/04/04 04:46:52;;;;;;;12;10.05;;;;;;;-5.75;100;95356.25;;;;
2022/04/04 04:47:53;;;;;;;12;10.05;;;;;;;-5.75;100;95356.25;;;;
2022/04/04 04:48:54;;;;;;;12;10.05;;;;;;;-5.75;100;95356.25;;;;
2022/04/04 04:49:55;;;;;;;12;10.05;;;;;;;-5.75;100;95356.25;;;;
2022/04/04 04:50:55;;;;;;;12;10.05;;;;;;;-5.75;100;95356.25;;;;
2022/04/04 04:51:56;;;;;;;12;10.05;;;;;;;-5.75;100;95356.25;;;;
2022/04/04 04:52:56;;;;;;;12;10.05;;;;;;;-5.75;100;95356.25;;;;
2022/04/04 04:53:57;;;;;;;12;10.05;;;;;;;-5.75;100;95356.25;;;;
2022/04/04 04:54:58;;;;;;;12;10.05;;;;;;;-5.75;100;95356.25;;;;
2022/04/04 04:55:59;;;;;;;13.2;10.35;;;;;;;-5.82;100;95350.37;;;;
2022/04/04 04:57:00;;;;;;;13.2;10.35;;;;;;;-5.82;100;95350.37;;;;
2022/04/04 04:58:00;;;;;;;13.2;10.35;;;;;;;-5.82;100;95350.37;;;;
2022/04/04 04:59:01;;;;;;;13.2;10.35;;;;;;;-5.82;100;95350.37;;;;
2022/04/04 05:00:03;;;;;;;13.2;10.35;;;;;;;-5.82;100;95350.37;;;;
2022/04/04 05:01:06;;;;;;;13.2;10.35;;;;;;;-5.82;100;95350.37;;;;
2022/04/04 05:02:06;;;;;;;13.2;10.35;;;;;;;-5.82;100;95350.37;;;;
2022/04/04 05:03:39;;;;;;;13.2;10.35;;;;;;;-5.82;100;95350.37;;;;
2022/04/04 05:04:40;;;;;;;13.2;10.35;;;;;;;-5.82;100;95350.37;;;;
2022/04/04 05:05:40;;;;;;;13.2;10.35;;;;;;;-5.82;100;95350.37;;;;
2022/04/04 05:06:42;;;;;;;14.3;10.65;;;;;;;-5.87;100;95359.11;;;;
2022/04/04 05:07:42;;;;;;;14.3;10.65;;;;;;;-5.87;100;95359.11;;;;
2022/04/04 05:08:43;;;;;;;14.3;10.65;;;;;;;-5.87;100;95359.11;;;;
2022/04/04 05:09:43;;;;;;;14.3;10.65;;;;;;;-5.87;100;95359.11;;;;
2022/04/04 05:10:44;;;;;;;14.3;10.65;;;;;;;-5.87;100;95359.11;;;;
2022/04/04 05:11:45;;;;;;;14.3;10.65;;;;;;;-5.87;100;95359.11;;;;
2022/04/04 05:12:45;;;;;;;14.3;10.65;;;;;;;-5.87;100;95359.11;;;;
2022/04/04 05:13:46;;;;;;;14.3;10.65;;;;;;;-5.87;100;95359.11;;;;
2022/04/04 05:14:47;;;;;;;14.3;10.65;;;;;;;-5.87;100;95359.11;;;;
2022/04/04 05:15:47;;;;;;;14.3;10.65;;;;;;;-5.87;100;95359.11;;;;
2022/04/04 05:16:48;;;;;;;14.35;11.6;;;;;;;-5.78;100;95356.53;;;;
2022/04/04 05:17:49;;;;;;;14.35;11.6;;;;;;;-5.78;100;95356.53;;;;
2022/04/04 05:18:50;;;;;;;14.35;11.6;;;;;;;-5.78;100;95356.53;;;;
2022/04/04 05:19:51;;;;;;;14.35;11.6;;;;;;;-5.78;100;95356.53;;;;
2022/04/04 05:20:51;;;;;;;14.35;11.6;;;;;;;-5.78;100;95356.53;;;;
2022/04/04 05:21:52;;;;;;;14.35;11.6;;;;;;;-5.78;100;95356.53;;;;
2022/04/04 05:22:52;;;;;;;14.35;11.6;;;;;;;-5.78;100;95356.53;;;;
2022/04/04 05:23:53;;;;;;;14.35;11.6;;;;;;;-5.78;100;95356.53;;;;
2022/04/04 05:24:53;;;;;;;14.35;11.6;;;;;;;-5.78;100;95356.53;;;;
2022/04/04 05:25:54;;;;;;;14.35;11.6;;;;;;;-5.78;100;95356.53;;;;
2022/04/04 05:26:55;;;;;;;14.35;11.6;;;;;;;-5.78;100;95356.53;;;;
2022/04/04 05:27:56;;;;;;;12.9;11.05;;;;;;;-5.62;100;95351.14;;;;
2022/04/04 05:28:57;;;;;;;12.9;11.05;;;;;;;-5.62;100;95351.14;;;;
2022/04/04 05:29:58;;;;;;;12.9;11.05;;;;;;;-5.62;100;95351.14;;;;
2022/04/04 05:30:59;;;;;;;12.9;11.05;;;;;;;-5.62;100;95351.14;;;;
2022/04/04 05:32:00;;;;;;;12.9;11.05;;;;;;;-5.62;100;95351.14;;;;
2022/04/04 05:33:00;;;;;;;12.9;11.05;;;;;;;-5.62;100;95351.14;;;;
2022/04/04 05:34:01;;;;;;;12.9;11.05;;;;;;;-5.62;100;95351.14;;;;
2022/04/04 05:35:05;;;;;;;12.9;11.05;;;;;;;-5.62;100;95351.14;;;;
2022/04/04 05:36:07;;;;;;;12.9;11.05;;;;;;;-5.62;100;95351.14;;;;
2022/04/04 05:37:08;;;;;;;12.9;11.05;;;;;;;-5.62;100;95351.14;;;;
2022/04/04 05:38:09;;;;;;;12.6;10.3;;;;;;;-5.3;100;95362.23;;;;
2022/04/04 05:39:10;;;;;;;12.6;10.3;;;;;;;-5.3;100;95362.23;;;;
2022/04/04 05:40:10;;;;;;;12.6;10.3;;;;;;;-5.3;100;95362.23;;;;
2022/04/04 05:41:11;;;;;;;12.6;10.3;;;;;;;-5.3;100;95362.23;;;;
2022/04/04 05:42:12;;;;;;;12.6;10.3;;;;;;;-5.3;100;95362.23;;;;
2022/04/04 05:43:12;;;;;;;12.6;10.3;;;;;;;-5.3;100;95362.23;;;;
2022/04/04 05:44:13;;;;;;;12.6;10.3;;;;;;;-5.3;100;95362.23;;;;
2022/04/04 05:45:14;;;;;;;12.6;10.3;;;;;;;-5.3;100;95362.23;;;;
2022/04/04 05:46:15;;;;;;;12.6;10.3;;;;;;;-5.3;100;95362.23;;;;
2022/04/04 05:47:19;;;;;;;12.6;10.3;;;;;;;-5.3;100;95362.23;;;;
2022/04/04 05:48:20;;;;;;;12.6;10.3;;;;;;;-5.3;100;95362.23;;;;
2022/04/04 05:49:21;;;;;;;12.65;10.15;;;;;;;-4.95;100;95362.9;;;;
2022/04/04 05:50:21;;;;;;;12.65;10.15;;;;;;;-4.95;100;95362.9;;;;
2022/04/04 05:51:22;;;;;;;12.65;10.15;;;;;;;-4.95;100;95362.9;;;;
2022/04/04 05:52:23;;;;;;;12.65;10.15;;;;;;;-4.95;100;95362.9;;;;
2022/04/04 05:53:23;;;;;;;12.65;10.15;;;;;;;-4.95;100;95362.9;;;;
2022/04/04 05:54:24;;;;;;;12.65;10.15;;;;;;;-4.95;100;95362.9;;;;
2022/04/04 05:55:24;;;;;;;12.65;10.15;;;;;;;-4.95;100;95362.9;;;;
2022/04/04 05:56:25;;;;;;;12.65;10.15;;;;;;;-4.95;100;95362.9;;;;
2022/04/04 05:57:26;;;;;;;12.65;10.15;;;;;;;-4.95;100;95362.9;;;;
2022/04/04 05:58:28;;;;;;;12.65;10.15;;;;;;;-4.95;100;95362.9;;;;
2022/04/04 05:59:29;;;;;;;12.2;7.999999;;;;;;;-4.52;100;95369.01;;;;
2022/04/04 06:00:29;;;;;;;12.2;7.999999;;;;;;;-4.52;100;95369.01;;;;
2022/04/04 06:01:30;;;;;;;12.2;7.999999;;;;;;;-4.52;100;95369.01;;;;
2022/04/04 06:02:31;;;;;;;12.2;7.999999;;;;;;;-4.52;100;95369.01;;;;
2022/04/04 06:03:36;;;;;;;12.2;7.999999;;;;;;;-4.52;100;95369.01;;;;
2022/04/04 06:04:37;;;;;;;12.2;7.999999;;;;;;;-4.52;100;95369.01;;;;
2022/04/04 06:05:38;;;;;;;12.2;7.999999;;;;;;;-4.52;100;95369.01;;;;
2022/04/04 06:06:39;;;;;;;12.2;7.999999;;;;;;;-4.52;100;95369.01;;;;
2022/04/04 06:07:39;;;;;;;12.2;7.999999;;;;;;;-4.52;100;95369.01;;;;
2022/04/04 06:08:40;;;;;;;12.2;7.999999;;;;;;;-4.52;100;95369.01;;;;
2022/04/04 06:09:41;;;;;;;12.2;7.999999;;;;;;;-4.52;100;95369.01;;;;
2022/04/04 06:10:42;;;;;;;10.1;7.7;;;;;;;-4.02;100;95374.3;;;;
2022/04/04 06:11:43;;;;;;;10.1;7.7;;;;;;;-4.02;100;95374.3;;;;